createdAt,value
2019-02-05T05:00:54.107Z,5.90
2019-02-05T05:01:53.969Z,21.60
2019-02-05T05:03:46.624Z,22.10
2019-02-05T05:04:46.510Z,21.70
2019-02-05T05:06:39.195Z,22.10
2019-02-05T05:07:39.053Z,22.80
2019-02-05T05:09:31.710Z,22.40
2019-02-05T05:10:31.594Z,23.00
2019-02-05T05:12:24.274Z,22.40
2019-02-05T05:13:24.138Z,24.30
2019-02-05T05:15:16.791Z,21.20
2019-02-05T05:16:16.679Z,21.80
2019-02-05T05:18:09.353Z,22.60
2019-02-05T05:19:09.218Z,22.30
2019-02-05T05:21:01.887Z,23.00
2019-02-05T05:22:01.865Z,25.00
2019-02-05T05:23:54.447Z,22.50
2019-02-05T05:24:54.303Z,22.00
2019-02-05T05:26:46.968Z,24.00
2019-02-05T05:27:46.849Z,24.60
2019-02-05T05:29:39.532Z,23.70
2019-02-05T05:30:39.401Z,23.20
2019-02-05T05:32:32.056Z,24.00
2019-02-05T05:33:31.939Z,22.50
2019-02-05T05:35:24.618Z,24.90
2019-02-05T05:36:24.481Z,22.50
2019-02-05T05:38:17.139Z,22.50
2019-02-05T05:39:17.027Z,25.30
2019-02-05T05:41:09.710Z,25.10
2019-02-05T05:42:09.568Z,24.90
2019-02-05T05:44:02.225Z,25.10
2019-02-05T05:45:02.108Z,23.10
2019-02-05T05:46:54.778Z,26.70
2019-02-05T05:47:54.655Z,24.30
2019-02-05T05:49:47.310Z,25.30
2019-02-05T05:50:47.193Z,24.10
2019-02-05T05:52:39.868Z,23.80
2019-02-05T05:53:39.738Z,24.80
2019-02-05T05:55:32.403Z,24.30
2019-02-05T05:56:32.285Z,24.40
2019-02-05T05:58:24.977Z,25.90
2019-02-05T05:59:24.839Z,24.50
2019-02-05T06:01:17.500Z,26.50
2019-02-05T06:02:17.380Z,23.70
2019-02-05T06:04:10.065Z,23.50
2019-02-05T06:05:09.921Z,26.60
2019-02-05T06:07:02.577Z,25.10
2019-02-05T06:08:02.467Z,26.50
2019-02-05T06:09:55.140Z,26.40
2019-02-05T06:10:55.014Z,27.10
2019-02-05T06:12:47.668Z,27.10
2019-02-05T06:13:47.547Z,25.90
2019-02-05T06:15:40.232Z,28.10
2019-02-05T06:16:40.090Z,25.20
2019-02-05T06:18:32.748Z,28.70
2019-02-05T06:19:32.637Z,26.70
2019-02-05T06:21:25.313Z,25.60
2019-02-05T06:22:25.179Z,27.10
2019-02-05T06:24:17.842Z,27.30
2019-02-05T06:25:17.727Z,26.30
2019-02-05T06:27:10.408Z,27.00
2019-02-05T06:28:10.265Z,27.30
2019-02-05T06:30:02.923Z,29.00
2019-02-05T06:31:02.816Z,27.30
2019-02-05T06:32:55.489Z,26.60
2019-02-05T06:33:55.432Z,30.40
2019-02-05T06:35:48.016Z,28.20
2019-02-05T06:36:47.921Z,28.20
2019-02-05T06:38:40.577Z,29.10
2019-02-05T06:39:40.448Z,25.70
2019-02-05T06:41:33.114Z,28.60
2019-02-05T06:42:32.995Z,27.70
2019-02-05T06:44:25.671Z,31.10
2019-02-05T06:45:25.544Z,33.40
2019-02-05T06:47:18.200Z,34.20
2019-02-05T06:48:18.091Z,37.70
2019-02-05T06:50:10.766Z,31.60
2019-02-05T06:51:10.632Z,28.60
2019-02-05T06:53:03.288Z,29.40
2019-02-05T06:54:03.176Z,29.50
2019-02-05T06:55:55.863Z,29.40
2019-02-05T06:56:55.719Z,29.20
2019-02-05T06:58:48.379Z,35.00
2019-02-05T06:59:48.265Z,32.50
2019-02-05T07:01:41.071Z,31.50
2019-02-05T07:02:40.808Z,28.40
2019-02-05T07:04:33.465Z,29.90
2019-02-05T07:05:33.363Z,31.70
2019-02-05T07:07:26.036Z,34.40
2019-02-05T07:08:25.912Z,30.90
2019-02-05T07:10:18.566Z,34.40
2019-02-05T07:11:18.453Z,33.90
2019-02-05T07:13:11.134Z,33.60
2019-02-05T07:14:10.995Z,33.90
2019-02-05T07:16:03.653Z,36.20
2019-02-05T07:17:03.544Z,32.70
2019-02-05T07:18:56.226Z,35.00
2019-02-05T07:19:56.091Z,35.40
2019-02-05T07:21:48.750Z,36.10
2019-02-05T07:22:48.642Z,36.50
2019-02-05T07:24:41.320Z,35.30
2019-02-05T07:25:41.182Z,37.40
2019-02-05T07:27:33.842Z,37.70
2019-02-05T07:28:33.725Z,37.60
2019-02-05T07:30:26.413Z,37.80
2019-02-05T07:31:26.279Z,35.10
2019-02-05T07:33:18.936Z,36.60
2019-02-05T07:34:21.212Z,39.10
2019-02-05T07:36:11.500Z,34.60
2019-02-05T07:37:11.364Z,35.10
2019-02-05T07:39:04.017Z,38.00
2019-02-05T07:40:03.906Z,34.90
2019-02-05T07:41:56.579Z,34.80
2019-02-05T07:42:56.444Z,36.50
2019-02-05T07:44:49.103Z,31.30
2019-02-05T07:45:49.050Z,34.80
2019-02-05T07:47:41.661Z,31.60
2019-02-05T07:48:41.537Z,34.60
2019-02-05T07:50:34.195Z,36.70
2019-02-05T07:51:34.081Z,36.80
2019-02-05T07:53:26.753Z,34.70
2019-02-05T07:54:26.624Z,35.40
2019-02-05T07:56:19.281Z,33.60
2019-02-05T07:57:19.171Z,35.30
2019-02-05T07:59:11.857Z,34.60
2019-02-05T08:00:11.709Z,31.70
2019-02-05T08:02:04.376Z,35.40
2019-02-05T08:03:04.262Z,33.40
2019-02-05T08:04:56.945Z,31.40
2019-02-05T08:05:56.813Z,30.60
2019-02-05T08:07:49.472Z,31.80
2019-02-05T08:08:49.347Z,31.50
2019-02-05T08:10:42.030Z,33.00
2019-02-05T08:11:41.928Z,29.90
2019-02-05T08:13:34.578Z,31.90
2019-02-05T08:14:34.443Z,28.40
2019-02-05T08:16:27.113Z,29.00
2019-02-05T08:17:26.987Z,29.10
2019-02-05T08:19:19.648Z,31.50
2019-02-05T08:20:19.537Z,27.90
2019-02-05T08:22:12.212Z,29.00
2019-02-05T08:23:12.075Z,26.70
2019-02-05T08:25:04.730Z,26.40
2019-02-05T08:26:04.624Z,28.20
2019-02-05T08:27:57.297Z,26.70
2019-02-05T08:28:57.176Z,24.80
2019-02-05T08:30:49.831Z,26.60
2019-02-05T08:31:49.710Z,25.00
2019-02-05T08:33:42.384Z,25.90
2019-02-05T08:34:42.251Z,27.90
2019-02-05T08:36:34.917Z,25.90
2019-02-05T08:37:34.803Z,26.40
2019-02-05T08:39:27.475Z,30.40
2019-02-05T08:40:27.340Z,25.80
2019-02-05T08:42:20.015Z,24.90
2019-02-05T08:43:19.891Z,28.70
2019-02-05T08:45:14.311Z,26.60
2019-02-05T08:46:12.428Z,28.20
2019-02-05T08:48:05.109Z,27.20
2019-02-05T08:49:04.968Z,26.20
2019-02-05T08:50:57.632Z,27.40
2019-02-05T08:51:57.523Z,27.80
2019-02-05T08:53:50.202Z,28.10
2019-02-05T08:54:50.073Z,26.70
2019-02-05T08:56:42.789Z,27.70
2019-02-05T08:57:42.611Z,26.40
2019-02-05T08:59:35.295Z,28.50
2019-02-05T09:00:35.162Z,27.70
2019-02-05T09:02:27.822Z,25.30
2019-02-05T09:03:27.715Z,29.30
2019-02-05T09:05:20.383Z,30.50
2019-02-05T09:06:20.251Z,26.70
2019-02-05T09:08:12.952Z,25.50
2019-02-05T09:09:12.829Z,26.60
2019-02-05T09:11:05.513Z,26.40
2019-02-05T09:12:05.437Z,27.50
2019-02-05T09:13:58.198Z,25.60
2019-02-05T09:14:58.021Z,25.40
2019-02-05T09:16:50.747Z,28.80
2019-02-05T09:17:50.631Z,25.60
2019-02-05T09:19:43.256Z,27.50
2019-02-05T09:20:43.112Z,29.30
2019-02-05T09:22:35.872Z,27.40
2019-02-05T09:23:35.721Z,26.60
2019-02-05T09:25:28.334Z,24.80
2019-02-05T09:26:28.244Z,27.90
2019-02-05T09:28:20.960Z,26.20
2019-02-05T09:29:20.789Z,27.40
2019-02-05T09:31:13.506Z,29.10
2019-02-05T09:32:13.394Z,25.60
2019-02-05T09:34:06.015Z,24.30
2019-02-05T09:35:05.888Z,25.80
2019-02-05T09:36:58.547Z,26.20
2019-02-05T09:37:58.436Z,23.80
2019-02-05T09:39:51.120Z,22.90
2019-02-05T09:40:50.983Z,24.00
2019-02-05T09:42:43.647Z,24.30
2019-02-05T09:43:43.527Z,24.60
2019-02-05T09:45:36.290Z,22.10
2019-02-05T09:46:36.114Z,24.10
2019-02-05T09:48:28.820Z,25.60
2019-02-05T09:49:28.668Z,25.30
2019-02-05T09:51:21.377Z,23.70
2019-02-05T09:52:21.251Z,24.10
2019-02-05T09:54:13.905Z,24.00
2019-02-05T09:55:13.773Z,23.30
2019-02-05T09:57:06.497Z,24.20
2019-02-05T09:58:06.334Z,21.10
2019-02-05T09:59:59.003Z,20.90
2019-02-05T10:00:59.733Z,21.10
2019-02-05T10:02:51.596Z,19.20
2019-02-05T10:03:51.479Z,19.20
2019-02-05T10:05:44.213Z,19.40
2019-02-05T10:06:44.035Z,19.80
2019-02-05T10:08:36.731Z,18.90
2019-02-05T10:09:36.584Z,19.40
2019-02-05T10:11:29.241Z,18.70
2019-02-05T10:12:29.125Z,18.70
2019-02-05T10:14:21.807Z,19.10
2019-02-05T10:15:21.674Z,19.40
2019-02-05T10:17:14.425Z,18.00
2019-02-05T10:18:14.320Z,17.10
2019-02-05T10:20:06.913Z,16.40
2019-02-05T10:21:06.790Z,16.60
2019-02-05T10:22:59.470Z,18.90
2019-02-05T10:23:59.418Z,17.40
2019-02-05T10:25:52.049Z,16.00
2019-02-05T10:26:51.883Z,15.20
2019-02-05T10:28:44.613Z,16.70
2019-02-05T10:29:44.467Z,17.60
2019-02-05T10:31:37.210Z,15.90
2019-02-05T10:32:37.081Z,16.10
2019-02-05T10:34:34.231Z,16.10
2019-02-05T10:35:29.619Z,16.60
2019-02-05T10:37:22.375Z,15.80
2019-02-05T10:38:22.192Z,15.60
2019-02-05T10:40:14.841Z,16.30
2019-02-05T10:41:14.747Z,15.80
2019-02-05T10:43:07.410Z,14.30
2019-02-05T10:44:07.275Z,14.90
2019-02-05T10:45:59.940Z,15.50
2019-02-05T10:46:59.821Z,15.20
2019-02-05T10:48:52.513Z,17.90
2019-02-05T10:49:52.370Z,15.60
2019-02-05T10:51:45.035Z,14.60
2019-02-05T10:52:44.937Z,14.30
2019-02-05T10:54:37.600Z,14.00
2019-02-05T10:55:37.471Z,14.50
2019-02-05T10:57:30.127Z,15.00
2019-02-05T10:58:30.022Z,14.80
2019-02-05T11:00:22.696Z,14.60
2019-02-05T11:01:22.571Z,15.80
2019-02-05T11:03:15.221Z,15.70
2019-02-05T11:04:15.115Z,17.00
2019-02-05T11:06:07.785Z,17.20
2019-02-05T11:07:07.663Z,17.30
2019-02-05T11:09:00.314Z,17.10
2019-02-05T11:10:00.352Z,16.90
2019-02-05T11:11:52.877Z,16.90
2019-02-05T11:12:52.753Z,15.60
2019-02-05T11:14:45.435Z,16.90
2019-02-05T11:15:45.295Z,15.80
2019-02-05T11:17:37.958Z,17.70
2019-02-05T11:18:37.841Z,17.30
2019-02-05T11:20:30.522Z,18.40
2019-02-05T11:21:30.392Z,16.70
2019-02-05T11:23:23.048Z,17.40
2019-02-05T11:24:22.931Z,17.80
2019-02-05T11:26:15.622Z,18.10
2019-02-05T11:27:15.488Z,18.00
2019-02-05T11:29:08.200Z,16.70
2019-02-05T11:30:08.066Z,17.50
2019-02-05T11:32:00.739Z,17.80
2019-02-05T11:33:00.592Z,16.90
2019-02-05T11:34:53.398Z,17.50
2019-02-05T11:35:53.266Z,16.70
2019-02-05T11:37:45.851Z,16.80
2019-02-05T11:38:45.748Z,16.90
2019-02-05T11:40:38.440Z,17.30
2019-02-05T11:41:38.295Z,16.80
2019-02-05T11:43:30.958Z,16.50
2019-02-05T11:44:30.832Z,17.00
2019-02-05T11:46:23.519Z,16.20
2019-02-05T11:47:23.365Z,16.20
2019-02-05T11:49:16.033Z,18.20
2019-02-05T11:50:15.909Z,15.90
2019-02-05T11:52:09.804Z,16.60
2019-02-05T11:53:08.513Z,16.90
2019-02-05T11:55:01.160Z,16.90
2019-02-05T11:56:01.052Z,17.40
2019-02-05T11:57:53.715Z,18.60
2019-02-05T11:58:53.640Z,17.20
2019-02-05T12:00:46.252Z,18.80
2019-02-05T12:01:46.110Z,19.20
2019-02-05T12:03:38.800Z,17.40
2019-02-05T12:04:38.715Z,17.70
2019-02-05T12:06:32.509Z,17.40
2019-02-05T12:07:31.381Z,17.80
2019-02-05T12:09:24.077Z,17.20
2019-02-05T12:10:23.961Z,17.50
2019-02-05T12:12:16.725Z,16.00
2019-02-05T12:13:16.510Z,16.90
2019-02-05T12:15:09.179Z,17.50
2019-02-05T12:16:09.078Z,19.30
2019-02-05T12:18:01.807Z,16.70
2019-02-05T12:19:01.625Z,16.60
2019-02-05T12:20:54.292Z,17.00
2019-02-05T12:21:54.173Z,17.00
2019-02-05T12:23:46.857Z,16.50
2019-02-05T12:24:46.722Z,17.10
2019-02-05T12:26:39.385Z,18.60
2019-02-05T12:27:39.270Z,17.30
2019-02-05T12:29:31.944Z,17.00
2019-02-05T12:30:43.838Z,17.30
2019-02-05T12:32:24.468Z,17.50
2019-02-05T12:33:24.366Z,16.40
2019-02-05T12:35:17.046Z,16.90
2019-02-05T12:36:16.908Z,15.70
2019-02-05T12:38:09.567Z,17.80
2019-02-05T12:39:09.459Z,18.20
2019-02-05T12:41:02.125Z,17.60
2019-02-05T12:42:02.005Z,19.50
2019-02-05T12:43:54.660Z,17.50
2019-02-05T12:44:54.549Z,17.10
2019-02-05T12:46:47.233Z,20.40
2019-02-05T12:47:47.095Z,19.90
2019-02-05T12:49:39.756Z,18.10
2019-02-05T12:50:39.643Z,17.10
2019-02-05T12:52:32.330Z,17.50
2019-02-05T12:53:32.203Z,16.20
2019-02-05T12:55:24.869Z,16.70
2019-02-05T12:56:24.746Z,16.80
2019-02-05T12:58:17.425Z,20.10
2019-02-05T12:59:17.298Z,18.50
2019-02-05T13:01:09.950Z,18.10
2019-02-05T13:02:09.847Z,18.80
2019-02-05T13:04:02.521Z,18.30
2019-02-05T13:05:02.393Z,19.70
2019-02-05T13:06:55.047Z,18.20
2019-02-05T13:07:54.936Z,18.60
2019-02-05T13:09:47.609Z,18.00
2019-02-05T13:10:47.537Z,18.60
2019-02-05T13:12:40.157Z,22.70
2019-02-05T13:13:40.038Z,21.90
2019-02-05T13:15:32.783Z,21.30
2019-02-05T13:16:32.680Z,21.90
2019-02-05T13:18:25.307Z,18.10
2019-02-05T13:19:25.212Z,20.40
2019-02-05T13:21:17.918Z,16.60
2019-02-05T13:22:17.755Z,17.90
2019-02-05T13:24:10.572Z,20.70
2019-02-05T13:25:10.319Z,20.60
2019-02-05T13:27:03.196Z,19.80
2019-02-05T13:28:02.907Z,19.60
2019-02-05T13:29:56.433Z,21.00
2019-02-05T13:31:07.343Z,22.40
2019-02-05T13:32:49.039Z,22.70
2019-02-05T13:33:48.900Z,19.90
2019-02-05T13:35:41.541Z,16.80
2019-02-05T13:36:41.421Z,19.50
2019-02-05T13:38:34.119Z,22.60
2019-02-05T13:39:33.998Z,19.70
2019-02-05T13:41:29.051Z,18.40
2019-02-05T13:42:26.568Z,16.70
2019-02-05T13:44:19.265Z,17.50
2019-02-05T13:45:19.153Z,18.30
2019-02-05T13:47:11.819Z,17.80
2019-02-05T13:48:11.750Z,16.60
2019-02-05T13:50:04.417Z,18.60
2019-02-05T13:51:04.247Z,18.40
2019-02-05T13:52:56.940Z,18.30
2019-02-05T13:53:56.808Z,17.70
2019-02-05T13:55:49.558Z,17.00
2019-02-05T13:56:49.405Z,16.70
2019-02-05T13:58:42.236Z,18.30
2019-02-05T13:59:41.927Z,18.20
2019-02-05T14:01:34.608Z,17.70
2019-02-05T14:02:34.476Z,16.70
2019-02-05T14:04:27.165Z,16.20
2019-02-05T14:05:27.016Z,15.80
2019-02-05T14:07:19.719Z,18.40
2019-02-05T14:08:19.607Z,19.40
2019-02-05T14:10:12.254Z,16.50
2019-02-05T14:11:12.148Z,16.70
2019-02-05T14:13:04.827Z,17.50
2019-02-05T14:14:04.703Z,17.20
2019-02-05T14:15:57.396Z,18.50
2019-02-05T14:16:57.263Z,18.10
2019-02-05T14:18:55.543Z,17.30
2019-02-05T14:19:49.810Z,16.90
2019-02-05T14:21:42.566Z,17.90
2019-02-05T14:22:42.506Z,19.80
2019-02-05T14:24:35.061Z,18.30
2019-02-05T14:25:34.936Z,18.40
2019-02-05T14:27:27.596Z,17.90
2019-02-05T14:28:27.481Z,20.10
2019-02-05T14:30:20.173Z,18.70
2019-02-05T14:31:30.754Z,17.10
2019-02-05T14:33:12.770Z,18.90
2019-02-05T14:34:12.573Z,18.00
2019-02-05T14:36:05.313Z,18.70
2019-02-05T14:37:05.141Z,19.40
2019-02-05T14:38:57.848Z,19.80
2019-02-05T14:39:57.712Z,19.20
2019-02-05T14:41:50.439Z,18.30
2019-02-05T14:42:50.267Z,19.10
2019-02-05T14:44:42.927Z,19.60
2019-02-05T14:45:42.810Z,21.50
2019-02-05T14:47:35.569Z,18.00
2019-02-05T14:48:35.441Z,19.90
2019-02-05T14:50:28.107Z,21.70
2019-02-05T14:51:27.990Z,19.60
2019-02-05T14:53:20.706Z,20.20
2019-02-05T14:54:20.576Z,21.60
2019-02-05T14:56:13.282Z,18.10
2019-02-05T14:57:13.140Z,20.50
2019-02-05T14:59:05.816Z,19.50
2019-02-05T15:00:05.690Z,16.80
2019-02-05T15:01:58.341Z,18.20
2019-02-05T15:02:58.241Z,17.90
2019-02-05T15:04:50.914Z,18.70
2019-02-05T15:05:50.808Z,17.50
2019-02-05T15:07:43.465Z,18.60
2019-02-05T15:08:43.350Z,17.40
2019-02-05T15:10:36.034Z,19.00
2019-02-05T15:11:35.906Z,18.80
2019-02-05T15:13:28.568Z,19.20
2019-02-05T15:14:28.451Z,21.20
2019-02-05T15:16:21.134Z,20.00
2019-02-05T15:17:21.003Z,18.70
2019-02-05T15:19:13.731Z,18.50
2019-02-05T15:20:13.561Z,18.30
2019-02-05T15:22:06.314Z,31.20
2019-02-05T15:23:06.159Z,23.50
2019-02-05T15:24:58.801Z,19.60
2019-02-05T15:25:58.680Z,20.50
2019-02-05T15:27:51.413Z,20.80
2019-02-05T15:28:51.279Z,21.20
2019-02-05T15:30:44.024Z,21.00
2019-02-05T15:31:53.813Z,20.30
2019-02-05T15:33:36.534Z,19.50
2019-02-05T15:34:36.410Z,22.00
2019-02-05T15:36:31.426Z,21.60
2019-02-05T15:37:28.989Z,21.00
2019-02-05T15:39:21.688Z,22.00
2019-02-05T15:40:21.532Z,23.50
2019-02-05T15:42:14.311Z,21.60
2019-02-05T15:43:14.068Z,25.40
2019-02-05T15:45:06.790Z,25.20
2019-02-05T15:46:06.658Z,24.30
2019-02-05T15:47:59.260Z,25.50
2019-02-05T15:48:59.154Z,24.50
2019-02-05T15:50:51.840Z,25.20
2019-02-05T15:51:51.697Z,26.50
2019-02-05T15:53:44.362Z,26.80
2019-02-05T15:54:44.245Z,24.40
2019-02-05T15:56:36.917Z,27.00
2019-02-05T15:57:36.790Z,28.80
2019-02-05T15:59:29.447Z,28.10
2019-02-05T16:00:29.335Z,27.40
2019-02-05T16:02:22.004Z,27.50
2019-02-05T16:03:21.880Z,27.30
2019-02-05T16:05:14.542Z,26.40
2019-02-05T16:06:14.425Z,27.30
2019-02-05T16:08:07.103Z,28.30
2019-02-05T16:09:06.973Z,30.60
2019-02-05T16:10:59.624Z,29.70
2019-02-05T16:11:59.513Z,31.60
2019-02-05T16:13:52.189Z,31.10
2019-02-05T16:14:52.064Z,29.40
2019-02-05T16:16:44.734Z,27.50
2019-02-05T16:17:44.601Z,30.30
2019-02-05T16:19:37.265Z,31.70
2019-02-05T16:20:37.144Z,30.00
2019-02-05T16:22:29.818Z,29.60
2019-02-05T16:23:29.690Z,28.80
2019-02-05T16:25:22.346Z,28.30
2019-02-05T16:26:22.240Z,27.90
2019-02-05T16:28:14.927Z,27.70
2019-02-05T16:29:14.786Z,27.00
2019-02-05T16:31:07.450Z,28.40
2019-02-05T16:32:17.290Z,28.80
2019-02-05T16:34:00.130Z,27.80
2019-02-05T16:34:59.879Z,27.30
2019-02-05T16:36:52.547Z,26.50
2019-02-05T16:37:52.422Z,27.10
2019-02-05T16:39:45.117Z,28.50
2019-02-05T16:40:44.969Z,27.30
2019-02-05T16:42:37.645Z,29.40
2019-02-05T16:43:37.520Z,29.70
2019-02-05T16:45:30.178Z,25.40
2019-02-05T16:46:30.062Z,28.00
2019-02-05T16:48:22.741Z,26.40
2019-02-05T16:49:22.712Z,27.70
2019-02-05T16:51:15.264Z,29.60
2019-02-05T16:52:15.155Z,28.40
2019-02-05T16:54:07.826Z,29.40
2019-02-05T16:55:07.698Z,28.70
2019-02-05T16:57:00.357Z,28.20
2019-02-05T16:58:00.251Z,27.90
2019-02-05T16:59:52.918Z,27.90
2019-02-05T17:00:52.787Z,29.30
2019-02-05T17:02:45.491Z,27.20
2019-02-05T17:03:45.336Z,31.20
2019-02-05T17:05:37.997Z,29.00
2019-02-05T17:06:37.877Z,30.40
2019-02-05T17:08:30.548Z,29.60
2019-02-05T17:09:30.430Z,27.90
2019-02-05T17:11:23.094Z,28.80
2019-02-05T17:12:22.983Z,29.90
2019-02-05T17:14:15.647Z,31.10
2019-02-05T17:15:15.519Z,29.30
2019-02-05T17:17:08.224Z,28.90
2019-02-05T17:18:08.060Z,30.30
2019-02-05T17:20:00.732Z,31.30
2019-02-05T17:21:00.605Z,30.50
2019-02-05T17:22:53.256Z,29.30
2019-02-05T17:23:53.151Z,29.10
2019-02-05T17:25:45.827Z,29.30
2019-02-05T17:26:45.693Z,28.00
2019-02-05T17:28:38.373Z,31.50
2019-02-05T17:29:38.245Z,30.00
2019-02-05T17:31:30.904Z,30.60
2019-02-05T17:32:39.991Z,32.50
2019-02-05T17:34:23.459Z,33.00
2019-02-05T17:35:23.339Z,30.40
2019-02-05T17:37:15.989Z,32.80
2019-02-05T17:38:15.883Z,32.70
2019-02-05T17:40:08.562Z,34.80
2019-02-05T17:41:08.424Z,34.50
2019-02-05T17:43:01.088Z,33.60
2019-02-05T17:44:00.976Z,32.80
2019-02-05T17:45:53.646Z,32.60
2019-02-05T17:46:53.518Z,31.40
2019-02-05T17:48:46.187Z,31.90
2019-02-05T17:49:46.063Z,33.20
2019-02-05T17:51:38.731Z,31.60
2019-02-05T17:52:38.607Z,32.60
2019-02-05T17:54:31.281Z,33.50
2019-02-05T17:55:31.198Z,31.70
2019-02-05T17:57:23.811Z,33.00
2019-02-05T17:58:23.702Z,33.30
2019-02-05T18:00:16.376Z,32.50
2019-02-05T18:01:16.249Z,30.60
2019-02-05T18:03:08.901Z,35.30
2019-02-05T18:04:08.792Z,31.20
2019-02-05T18:06:01.467Z,30.80
2019-02-05T18:07:01.346Z,33.00
2019-02-05T18:08:54.005Z,34.10
2019-02-05T18:09:53.888Z,34.50
2019-02-05T18:11:46.566Z,36.50
2019-02-05T18:12:46.431Z,34.00
2019-02-05T18:14:39.117Z,35.70
2019-02-05T18:15:38.983Z,34.60
2019-02-05T18:17:31.662Z,34.10
2019-02-05T18:18:31.552Z,32.90
2019-02-05T18:20:24.235Z,37.60
2019-02-05T18:21:24.099Z,35.50
2019-02-05T18:23:16.762Z,33.60
2019-02-05T18:24:16.758Z,38.40
2019-02-05T18:26:09.320Z,39.50
2019-02-05T18:27:09.198Z,38.40
2019-02-05T18:29:01.971Z,37.90
2019-02-05T18:30:01.743Z,34.60
2019-02-05T18:31:54.418Z,37.40
2019-02-05T18:33:03.080Z,38.30
2019-02-05T18:34:46.958Z,35.70
2019-02-05T18:35:46.830Z,37.60
2019-02-05T18:37:39.494Z,36.40
2019-02-05T18:38:39.375Z,37.20
2019-02-05T18:40:32.051Z,38.10
2019-02-05T18:41:31.922Z,37.60
2019-02-05T18:43:24.580Z,39.20
2019-02-05T18:44:24.471Z,36.10
2019-02-05T18:46:17.178Z,36.30
2019-02-05T18:47:17.028Z,37.50
2019-02-05T18:49:09.697Z,38.00
2019-02-05T18:50:09.580Z,35.60
2019-02-05T18:52:02.252Z,39.60
2019-02-05T18:53:02.123Z,36.70
2019-02-05T18:54:54.822Z,37.70
2019-02-05T18:55:54.683Z,38.70
2019-02-05T18:57:47.343Z,36.70
2019-02-05T18:58:47.217Z,37.30
2019-02-05T19:00:39.959Z,37.50
2019-02-05T19:01:39.775Z,35.60
2019-02-05T19:03:32.461Z,37.60
2019-02-05T19:04:32.328Z,37.00
2019-02-05T19:06:25.003Z,37.40
2019-02-05T19:07:24.869Z,38.50
2019-02-05T19:09:17.522Z,40.00
2019-02-05T19:10:17.418Z,36.70
2019-02-05T19:12:10.088Z,38.30
2019-02-05T19:13:09.960Z,39.60
2019-02-05T19:15:02.615Z,36.90
2019-02-05T19:16:02.499Z,38.20
2019-02-05T19:17:55.173Z,39.00
2019-02-05T19:18:55.053Z,40.30
2019-02-05T19:20:47.738Z,33.80
2019-02-05T19:21:47.591Z,41.80
2019-02-05T19:23:40.252Z,36.30
2019-02-05T19:24:40.144Z,36.20
2019-02-05T19:26:32.813Z,33.90
2019-02-05T19:27:32.687Z,35.70
2019-02-05T19:29:25.345Z,36.80
2019-02-05T19:30:25.333Z,37.00
2019-02-05T19:32:17.910Z,36.70
2019-02-05T19:33:26.723Z,34.70
2019-02-05T19:35:10.446Z,35.50
2019-02-05T19:36:10.330Z,34.50
2019-02-05T19:38:03.020Z,36.10
2019-02-05T19:39:02.889Z,32.50
2019-02-05T19:40:57.718Z,34.60
2019-02-05T19:41:55.438Z,35.80
2019-02-05T19:43:48.112Z,34.10
2019-02-05T19:44:48.514Z,34.60
2019-02-05T19:46:40.682Z,34.20
2019-02-05T19:47:40.605Z,33.50
2019-02-05T19:49:33.201Z,34.40
2019-02-05T19:50:33.080Z,34.90
2019-02-05T19:52:27.721Z,34.10
2019-02-05T19:53:26.084Z,34.50
2019-02-05T19:55:18.280Z,33.10
2019-02-05T19:56:18.181Z,32.30
2019-02-05T19:58:10.884Z,34.70
2019-02-05T19:59:10.716Z,34.00
2019-02-05T20:01:03.381Z,33.20
2019-02-05T20:02:03.265Z,32.40
2019-02-05T20:03:55.950Z,33.20
2019-02-05T20:04:55.812Z,31.60
2019-02-05T20:06:48.563Z,32.40
2019-02-05T20:07:48.410Z,33.50
2019-02-05T20:09:41.052Z,32.30
2019-02-05T20:10:40.918Z,34.90
2019-02-05T20:12:33.598Z,31.30
2019-02-05T20:13:40.258Z,31.50
2019-02-05T20:15:26.122Z,32.20
2019-02-05T20:16:26.002Z,31.20
2019-02-05T20:18:18.683Z,33.60
2019-02-05T20:19:18.558Z,31.80
2019-02-05T20:21:11.206Z,32.90
2019-02-05T20:22:11.361Z,33.40
2019-02-05T20:24:03.857Z,34.60
2019-02-05T20:25:03.643Z,33.40
2019-02-05T20:26:56.304Z,32.20
2019-02-05T20:27:56.184Z,33.90
2019-02-05T20:29:48.864Z,32.10
2019-02-05T20:30:48.734Z,32.20
2019-02-05T20:32:41.389Z,33.40
2019-02-05T20:33:49.691Z,31.70
2019-02-05T20:35:34.003Z,33.50
2019-02-05T20:36:33.830Z,34.30
2019-02-05T20:38:26.519Z,34.00
2019-02-05T20:39:26.517Z,33.40
2019-02-05T20:41:19.120Z,35.20
2019-02-05T20:42:18.938Z,35.00
2019-02-05T20:44:11.605Z,34.50
2019-02-05T20:45:11.483Z,35.30
2019-02-05T20:47:04.138Z,35.70
2019-02-05T20:48:04.029Z,35.20
2019-02-05T20:49:56.707Z,35.90
2019-02-05T20:50:56.871Z,34.80
2019-02-05T20:52:49.235Z,36.60
2019-02-05T20:53:49.216Z,35.40
2019-02-05T20:55:41.801Z,36.80
2019-02-05T20:56:41.708Z,35.40
2019-02-05T20:58:34.343Z,36.90
2019-02-05T20:59:34.213Z,36.60
2019-02-05T21:01:26.873Z,35.80
2019-02-05T21:02:26.751Z,37.30
2019-02-05T21:04:19.428Z,35.90
2019-02-05T21:05:19.377Z,35.60
2019-02-05T21:07:11.968Z,35.70
2019-02-05T21:08:11.853Z,36.40
2019-02-05T21:10:04.572Z,34.60
2019-02-05T21:11:04.420Z,37.80
2019-02-05T21:12:57.058Z,35.10
2019-02-05T21:13:56.948Z,35.40
2019-02-05T21:15:49.622Z,35.00
2019-02-05T21:16:49.499Z,31.80
2019-02-05T21:18:42.275Z,33.40
2019-02-05T21:19:42.032Z,31.50
2019-02-05T21:21:34.699Z,31.90
2019-02-05T21:22:34.583Z,31.90
2019-02-05T21:24:27.257Z,33.30
2019-02-05T21:25:27.133Z,29.70
2019-02-05T21:27:19.792Z,31.70
2019-02-05T21:28:19.678Z,30.80
2019-02-05T21:30:12.444Z,30.50
2019-02-05T21:31:12.318Z,30.20
2019-02-05T21:33:04.986Z,30.70
2019-02-05T21:34:15.402Z,31.40
2019-02-05T21:35:57.551Z,31.00
2019-02-05T21:36:57.415Z,30.30
2019-02-05T21:38:50.205Z,29.50
2019-02-05T21:40:01.632Z,28.50
2019-02-05T21:41:42.645Z,29.80
2019-02-05T21:42:42.521Z,29.00
2019-02-05T21:44:35.216Z,29.70
2019-02-05T21:45:35.064Z,29.90
2019-02-05T21:47:27.727Z,28.70
2019-02-05T21:48:27.615Z,28.50
2019-02-05T21:50:20.294Z,28.10
2019-02-05T21:51:20.170Z,28.50
2019-02-05T21:53:12.820Z,28.70
2019-02-05T21:54:12.709Z,27.90
2019-02-05T21:56:05.393Z,29.80
2019-02-05T21:57:05.261Z,28.40
2019-02-05T21:58:57.933Z,28.00
2019-02-05T21:59:57.800Z,28.80
2019-02-05T22:01:50.473Z,28.10
2019-02-05T22:02:50.364Z,29.50
2019-02-05T22:04:43.042Z,28.50
2019-02-05T22:05:42.887Z,28.40
2019-02-05T22:07:35.620Z,28.60
2019-02-05T22:08:35.438Z,29.60
2019-02-05T22:10:28.108Z,29.00
2019-02-05T22:11:27.995Z,28.90
2019-02-05T22:13:20.644Z,29.60
2019-02-05T22:14:20.529Z,30.20
2019-02-05T22:16:13.207Z,28.10
2019-02-05T22:17:13.070Z,28.20
2019-02-05T22:19:05.727Z,30.30
2019-02-05T22:20:05.614Z,28.60
2019-02-05T22:21:58.294Z,30.30
2019-02-05T22:22:58.161Z,29.50
2019-02-05T22:24:50.823Z,29.60
2019-02-05T22:25:50.719Z,30.50
2019-02-05T22:27:43.389Z,29.90
2019-02-05T22:28:43.263Z,29.40
2019-02-05T22:30:35.926Z,30.10
2019-02-05T22:31:35.813Z,30.20
2019-02-05T22:33:28.491Z,30.60
2019-02-05T22:34:38.875Z,31.30
2019-02-05T22:36:21.044Z,30.10
2019-02-05T22:37:20.910Z,30.10
2019-02-05T22:39:13.573Z,30.40
2019-02-05T22:40:13.451Z,29.30
2019-02-05T22:42:06.135Z,29.50
2019-02-05T22:43:05.995Z,30.80
2019-02-05T22:44:58.660Z,29.80
2019-02-05T22:45:58.540Z,29.90
2019-02-05T22:47:51.222Z,30.00
2019-02-05T22:48:51.111Z,31.20
2019-02-05T22:50:43.753Z,28.70
2019-02-05T22:51:43.637Z,28.50
2019-02-05T22:53:36.314Z,29.50
2019-02-05T22:54:36.193Z,28.20
2019-02-05T22:56:28.946Z,28.80
2019-02-05T22:57:31.687Z,29.00
2019-02-05T22:59:21.391Z,28.50
